Time;durP1;ratioP1;P1;durP2;ratioP2;P2;SDS_P1;SDS_P2;PMS_P1;PMS_P2;Temp;Humidity;BMP_temperature;BMP_pressure;BME280_temperature;BME280_humidity;BME280_pressure;Samples;Min_cycle;Max_cycle;Signal;HPM_P1;HPM_P2
2023/01/28 00:00:07;;;;;;;3.20;1.80;;;;;;;3.93;65.71;100202.41;419135;23;1219;-88
2023/01/28 00:00:19;;;;;;;2.80;1.67;;;;;;;3.94;66.12;100205.00;419859;23;1954;-88
2023/01/28 00:00:32;;;;;;;2.25;1.73;;;;;;;3.94;65.82;100198.97;421682;23;1063;-88
2023/01/28 00:00:43;;;;;;;2.38;1.90;;;;;;;3.88;66.03;100207.53;424067;23;1067;-89
2023/01/28 00:00:56;;;;;;;2.28;1.75;;;;;;;3.83;66.09;100200.69;422560;23;968;-88
2023/01/28 00:01:10;;;;;;;2.53;1.83;;;;;;;3.84;65.82;100198.09;422685;23;878;-89
2023/01/28 00:01:22;;;;;;;2.67;2.00;;;;;;;3.85;65.91;100199.81;424367;23;893;-87
2023/01/28 00:01:34;;;;;;;2.75;2.00;;;;;;;3.87;66.17;100203.25;423945;23;1018;-88
2023/01/28 00:01:46;;;;;;;2.55;1.92;;;;;;;3.89;66.39;100201.53;422524;23;1048;-88
2023/01/28 00:01:58;;;;;;;2.28;1.75;;;;;;;3.90;66.46;100197.25;423318;23;705;-88
2023/01/28 00:02:14;;;;;;;2.70;1.73;;;;;;;3.88;65.95;100204.97;422329;23;1001;-88
2023/01/28 00:02:26;;;;;;;3.17;1.83;;;;;;;3.85;66.27;100197.25;422514;23;870;-88
2023/01/28 00:02:38;;;;;;;2.92;1.90;;;;;;;3.83;65.83;100196.38;424305;23;977;-88
2023/01/28 00:02:50;;;;;;;2.97;1.92;;;;;;;3.82;66.24;100198.94;425924;23;946;-87
2023/01/28 00:03:02;;;;;;;2.78;1.80;;;;;;;3.82;66.46;100199.78;425254;23;974;-89
2023/01/28 00:03:14;;;;;;;2.78;1.83;;;;;;;3.84;66.31;100202.38;423854;23;778;-88
2023/01/28 00:03:26;;;;;;;2.47;1.83;;;;;;;3.87;66.19;100202.41;424125;23;763;-88
2023/01/28 00:03:39;;;;;;;2.92;1.90;;;;;;;3.89;66.53;100206.69;421675;23;939;-89
2023/01/28 00:03:51;;;;;;;2.70;1.80;;;;;;;3.90;66.41;100205.81;421273;23;1075;-88
2023/01/28 00:04:04;;;;;;;2.47;1.80;;;;;;;3.91;66.03;100204.97;423702;23;854;-88
2023/01/28 00:04:16;;;;;;;2.38;1.73;;;;;;;3.91;65.88;100204.13;421406;23;1190;-87
2023/01/28 00:04:28;;;;;;;2.70;1.80;;;;;;;3.94;66.14;100205.00;422500;23;689;-88
2023/01/28 00:04:40;;;;;;;2.88;1.88;;;;;;;3.95;65.96;100201.56;421431;23;970;-88
2023/01/28 00:04:52;;;;;;;2.63;1.98;;;;;;;3.95;66.08;100211.84;418903;23;1115;-88
2023/01/28 00:05:04;;;;;;;2.75;2.00;;;;;;;3.96;65.91;100203.28;419725;23;786;-88
2023/01/28 00:05:16;;;;;;;2.75;1.92;;;;;;;3.85;65.52;100210.09;422559;23;708;-88
2023/01/28 00:05:28;;;;;;;2.90;1.88;;;;;;;3.75;65.56;100208.34;423826;23;1064;-88
2023/01/28 00:05:41;;;;;;;2.65;1.65;;;;;;;3.74;65.89;100204.94;422930;23;1061;-88
2023/01/28 00:06:01;;;;;;;2.63;1.70;;;;;;;3.74;65.80;100207.50;423304;23;1083;-87
2023/01/28 00:06:14;;;;;;;3.20;2.15;;;;;;;3.77;66.22;100199.78;422484;23;808;-87
2023/01/28 00:06:26;;;;;;;2.83;2.05;;;;;;;3.80;65.97;100206.63;419889;23;758;-88
2023/01/28 00:06:38;;;;;;;2.83;1.92;;;;;;;3.79;66.19;100203.22;421532;23;1054;-88
2023/01/28 00:06:53;;;;;;;2.75;1.90;;;;;;;3.82;65.79;100204.94;420508;23;1022;-88
2023/01/28 00:07:05;;;;;;;2.78;2.08;;;;;;;3.86;66.31;100206.66;419441;23;1350;-87
2023/01/28 00:07:18;;;;;;;2.70;2.00;;;;;;;3.89;66.00;100214.41;419576;23;1015;-89
2023/01/28 00:07:30;;;;;;;2.65;1.88;;;;;;;3.90;65.97;100205.81;418970;23;1231;-87
2023/01/28 00:07:42;;;;;;;2.60;1.80;;;;;;;3.91;65.81;100204.97;421316;23;1079;-88
2023/01/28 00:07:56;;;;;;;2.65;1.85;;;;;;;3.91;65.79;100210.13;421718;23;776;-87
2023/01/28 00:08:09;;;;;;;2.35;1.75;;;;;;;3.91;66.38;100204.13;422672;23;750;-89
2023/01/28 00:08:21;;;;;;;2.20;1.80;;;;;;;3.91;66.02;100202.41;421301;23;1087;-88
2023/01/28 00:08:33;;;;;;;2.28;1.85;;;;;;;3.93;65.47;100210.13;422431;23;686;-88
2023/01/28 00:08:45;;;;;;;2.88;2.08;;;;;;;3.88;65.82;100209.25;421597;23;1065;-89
2023/01/28 00:08:57;;;;;;;2.97;2.08;;;;;;;3.88;65.96;100211.81;423651;23;1058;-88
2023/01/28 00:09:09;;;;;;;3.90;2.05;;;;;;;3.91;65.96;100207.56;423764;23;1043;-88
2023/01/28 00:09:24;;;;;;;3.60;2.10;;;;;;;3.92;66.36;100206.69;423699;23;867;-88
2023/01/28 00:09:36;;;;;;;3.28;1.90;;;;;;;3.79;66.28;100210.09;423597;23;880;-88
2023/01/28 00:09:48;;;;;;;2.70;1.75;;;;;;;3.77;66.79;100206.66;424792;23;871;-88
2023/01/28 00:10:00;;;;;;;2.40;1.77;;;;;;;3.78;66.28;100204.09;424363;23;959;-87
2023/01/28 00:10:12;;;;;;;1.92;1.70;;;;;;;3.79;66.82;100207.50;424106;23;753;-88
2023/01/28 00:10:24;;;;;;;2.40;1.88;;;;;;;3.78;66.32;100203.22;423817;23;1135;-89
2023/01/28 00:10:38;;;;;;;2.90;1.92;;;;;;;3.80;66.79;100211.78;423703;23;929;-88
2023/01/28 00:10:50;;;;;;;3.28;2.15;;;;;;;3.81;66.95;100203.22;423729;23;847;-88
2023/01/28 00:11:05;;;;;;;2.60;1.98;;;;;;;3.79;66.44;100207.50;422478;23;697;-89
2023/01/28 00:11:17;;;;;;;2.47;1.90;;;;;;;3.76;66.65;100207.47;421740;23;1065;-88
2023/01/28 00:11:29;;;;;;;2.78;2.05;;;;;;;3.75;66.92;100203.22;421885;23;740;-88
2023/01/28 00:11:41;;;;;;;2.88;2.10;;;;;;;3.71;66.93;100211.75;419685;23;1018;-87
2023/01/28 00:11:53;;;;;;;3.22;2.13;;;;;;;3.74;67.23;100201.47;421738;23;1090;-88
2023/01/28 00:12:05;;;;;;;3.13;2.10;;;;;;;3.69;67.27;100208.31;420079;23;854;-88
2023/01/28 00:12:17;;;;;;;3.42;2.20;;;;;;;3.62;67.39;100209.13;419640;23;868;-88
2023/01/28 00:12:29;;;;;;;3.13;2.10;;;;;;;3.48;67.73;100203.94;422418;23;701;-89
2023/01/28 00:12:41;;;;;;;2.67;2.05;;;;;;;3.47;68.54;100208.22;419663;23;967;-88
2023/01/28 00:12:53;;;;;;;2.50;2.00;;;;;;;3.38;68.41;100203.00;419670;23;1060;-87
2023/01/28 00:13:06;;;;;;;2.50;2.03;;;;;;;3.31;68.91;100203.84;419783;23;892;-88
2023/01/28 00:13:18;;;;;;;2.63;2.08;;;;;;;3.35;68.59;100213.28;420748;23;693;-89
2023/01/28 00:13:32;;;;;;;2.97;2.20;;;;;;;3.35;68.75;100208.16;421975;23;742;-88
2023/01/28 00:13:44;;;;;;;3.58;2.10;;;;;;;3.29;68.71;100208.13;423837;23;873;-88
2023/01/28 00:13:56;;;;;;;4.38;2.10;;;;;;;3.31;68.99;100206.41;423588;23;681;-89
2023/01/28 00:14:10;;;;;;;4.10;2.20;;;;;;;3.37;68.75;100211.59;423627;23;914;-88
2023/01/28 00:14:22;;;;;;;3.25;2.20;;;;;;;3.40;68.81;100203.88;421609;23;969;-88
2023/01/28 00:14:34;;;;;;;2.95;2.20;;;;;;;3.44;68.54;100205.66;423368;23;1071;-88
2023/01/28 00:14:46;;;;;;;3.42;2.30;;;;;;;3.46;69.01;100211.66;419735;23;690;-89
2023/01/28 00:14:58;;;;;;;3.38;2.20;;;;;;;3.34;68.57;100212.44;419574;23;1074;-87
2023/01/28 00:15:11;;;;;;;2.72;2.05;;;;;;;3.27;69.04;100212.38;417767;23;1047;-89
2023/01/28 00:15:26;;;;;;;2.55;1.90;;;;;;;3.05;69.39;100212.25;417678;23;1030;-88
2023/01/28 00:15:38;;;;;;;2.70;2.00;;;;;;;3.05;69.00;100209.66;418394;23;695;-88
2023/01/28 00:16:03;;;;;;;2.90;2.13;;;;;;;3.06;69.21;100216.53;421586;23;950;-88
2023/01/28 00:16:15;;;;;;;4.10;2.33;;;;;;;3.07;69.21;100213.09;422016;23;803;-88
2023/01/28 00:16:27;;;;;;;3.22;2.20;;;;;;;3.07;69.26;100213.09;421839;23;954;-88
2023/01/28 00:16:39;;;;;;;3.13;2.20;;;;;;;3.05;69.20;100208.81;422026;23;805;-87
2023/01/28 00:16:51;;;;;;;3.28;2.20;;;;;;;2.91;69.28;100219.00;424041;23;674;-88
2023/01/28 00:17:05;;;;;;;3.60;2.30;;;;;;;2.92;69.46;100213.03;424112;23;1292;-88
2023/01/28 00:17:17;;;;;;;3.45;2.13;;;;;;;2.91;69.48;100217.28;423744;23;970;-89
2023/01/28 00:17:29;;;;;;;3.35;2.20;;;;;;;2.92;69.31;100213.88;421564;23;924;-88
2023/01/28 00:17:41;;;;;;;3.55;2.28;;;;;;;2.96;69.31;100210.47;422273;23;703;-88
2023/01/28 00:17:53;;;;;;;3.30;2.28;;;;;;;3.00;68.90;100206.22;422124;23;862;-89
2023/01/28 00:18:05;;;;;;;3.42;2.20;;;;;;;3.03;68.80;100201.09;422638;23;708;-88
2023/01/28 00:18:17;;;;;;;3.45;2.33;;;;;;;2.99;68.72;100205.34;421738;23;967;-88
2023/01/28 00:18:31;;;;;;;3.53;2.40;;;;;;;3.03;68.55;100201.09;422633;23;693;-87
2023/01/28 00:18:44;;;;;;;3.35;2.20;;;;;;;3.00;68.35;100201.09;422017;23;824;-88
2023/01/28 00:18:56;;;;;;;3.47;2.22;;;;;;;2.93;68.76;100205.31;422620;23;677;-88
2023/01/28 00:19:08;;;;;;;3.38;2.30;;;;;;;2.92;68.08;100202.75;421789;23;879;-89
2023/01/28 00:19:20;;;;;;;3.40;2.40;;;;;;;2.90;68.35;100199.31;423349;23;1138;-89
2023/01/28 00:19:32;;;;;;;3.47;2.40;;;;;;;2.77;68.42;100199.19;424175;23;907;-88
2023/01/28 00:19:44;;;;;;;3.22;2.25;;;;;;;2.78;68.58;100206.06;423535;23;1070;-87
2023/01/28 00:19:55;;;;;;;3.65;2.30;;;;;;;2.79;68.52;100205.19;421549;23;1099;-88
2023/01/28 00:20:08;;;;;;;4.15;2.42;;;;;;;2.87;68.78;100201.84;421762;23;1155;-89
2023/01/28 00:20:20;;;;;;;4.07;2.50;;;;;;;2.84;68.99;100204.38;422081;23;909;-88
2023/01/28 00:20:34;;;;;;;3.20;2.50;;;;;;;2.78;69.14;100205.22;420632;23;690;-88
2023/01/28 00:20:55;;;;;;;2.83;2.30;;;;;;;2.83;68.95;100202.66;419818;23;966;-89
2023/01/28 00:21:12;;;;;;;3.38;2.30;;;;;;;2.91;68.95;100206.16;418609;23;815;-88
2023/01/28 00:21:25;;;;;;;3.88;2.47;;;;;;;2.89;68.85;100203.56;417487;23;1006;-89
2023/01/28 00:21:37;;;;;;;3.53;2.33;;;;;;;2.75;69.41;100203.44;420568;23;712;-88
2023/01/28 00:21:49;;;;;;;3.53;2.22;;;;;;;2.82;69.12;100206.06;424565;23;680;-89
2023/01/28 00:22:01;;;;;;;2.95;2.10;;;;;;;2.88;69.75;100203.53;423727;23;1944;-89
2023/01/28 00:22:14;;;;;;;2.50;1.92;;;;;;;2.93;69.43;100199.31;421770;23;974;-89
2023/01/28 00:22:26;;;;;;;2.45;2.00;;;;;;;2.89;68.70;100203.56;424452;23;669;-87
2023/01/28 00:22:38;;;;;;;2.70;2.00;;;;;;;2.76;68.93;100204.34;423865;23;1068;-88
2023/01/28 00:22:49;;;;;;;3.47;1.98;;;;;;;2.65;68.58;100206.78;421838;23;1049;-88
2023/01/28 00:23:03;;;;;;;3.60;1.95;;;;;;;2.56;68.69;100209.28;421304;23;1082;-88
2023/01/28 00:23:15;;;;;;;3.20;2.00;;;;;;;2.57;69.38;100203.31;420668;23;673;-89
2023/01/28 00:23:28;;;;;;;2.80;2.00;;;;;;;2.55;68.87;100203.28;422478;23;681;-88
2023/01/28 00:23:42;;;;;;;3.05;2.10;;;;;;;2.63;69.18;100205.06;422644;23;746;-88
2023/01/28 00:23:55;;;;;;;3.55;2.00;;;;;;;2.62;69.00;100204.22;421791;23;1157;-88
2023/01/28 00:24:08;;;;;;;3.75;2.00;;;;;;;2.63;69.20;100200.78;421087;23;895;-89
2023/01/28 00:24:20;;;;;;;2.90;1.90;;;;;;;2.57;69.11;100206.72;422414;23;693;-87
2023/01/28 00:24:32;;;;;;;3.00;1.90;;;;;;;2.55;69.16;100205.84;421834;23;927;-88
2023/01/28 00:24:44;;;;;;;2.83;1.92;;;;;;;2.59;68.94;100204.19;422878;23;1059;-88
2023/01/28 00:24:57;;;;;;;2.88;1.98;;;;;;;2.64;68.98;100196.53;425852;23;953;-88
2023/01/28 00:25:09;;;;;;;2.78;1.95;;;;;;;2.67;69.10;100199.97;423462;23;950;-88
2023/01/28 00:25:21;;;;;;;3.30;2.00;;;;;;;2.70;69.51;100197.44;424538;23;681;-88
2023/01/28 00:25:32;;;;;;;3.15;1.92;;;;;;;2.74;69.33;100198.34;424173;23;915;-89
2023/01/28 00:25:44;;;;;;;2.50;1.70;;;;;;;2.79;69.15;100194.94;423308;23;1046;-88
2023/01/28 00:25:58;;;;;;;2.60;1.90;;;;;;;2.66;68.98;100200.81;419493;23;1107;-88
2023/01/28 00:26:13;;;;;;;2.95;1.92;;;;;;;2.58;69.08;100198.19;422056;23;762;-88
2023/01/28 00:26:25;;;;;;;2.97;2.10;;;;;;;2.59;68.98;100199.03;423839;23;1157;-88
2023/01/28 00:26:37;;;;;;;3.08;2.00;;;;;;;2.61;68.96;100197.34;424667;23;676;-89
2023/01/28 00:26:49;;;;;;;2.72;2.00;;;;;;;2.57;68.91;100196.47;421652;23;877;-89
2023/01/28 00:27:01;;;;;;;2.67;2.03;;;;;;;2.58;69.29;100193.06;424229;23;1550;-89
2023/01/28 00:27:13;;;;;;;2.78;2.20;;;;;;;2.58;70.07;100197.34;423787;23;983;-88
2023/01/28 00:27:25;;;;;;;3.40;2.20;;;;;;;2.54;70.81;100199.00;423603;23;737;-89
2023/01/28 00:27:37;;;;;;;3.33;2.17;;;;;;;2.62;70.93;100196.50;423750;23;1187;-88
2023/01/28 00:27:49;;;;;;;3.22;2.10;;;;;;;2.67;70.52;100205.09;424731;23;684;-88
2023/01/28 00:28:01;;;;;;;3.13;2.13;;;;;;;2.70;70.34;100197.44;423757;23;775;-88
2023/01/28 00:28:13;;;;;;;3.05;2.08;;;;;;;2.75;70.08;100198.31;425881;23;773;-88
2023/01/28 00:28:25;;;;;;;2.92;1.98;;;;;;;2.79;70.16;100197.50;428893;23;650;-88
2023/01/28 00:28:37;;;;;;;3.20;2.00;;;;;;;2.78;69.71;100193.22;425440;23;1073;-88
2023/01/28 00:28:49;;;;;;;3.10;2.03;;;;;;;2.67;70.05;100202.53;425458;23;1014;-89
2023/01/28 00:29:02;;;;;;;2.50;1.92;;;;;;;2.70;70.04;100201.72;424702;23;718;-88
2023/01/28 00:29:14;;;;;;;2.65;2.00;;;;;;;2.71;70.73;100204.28;421959;23;845;-89
2023/01/28 00:29:26;;;;;;;3.00;2.17;;;;;;;2.74;70.24;100199.19;424687;23;707;-88
2023/01/28 00:29:38;;;;;;;3.20;2.00;;;;;;;2.80;70.40;100203.50;423961;23;1128;-88
2023/01/28 00:29:50;;;;;;;2.88;2.10;;;;;;;2.75;70.30;100203.44;425838;23;988;-87
2023/01/28 00:30:03;;;;;;;2.97;2.10;;;;;;;2.78;70.62;100200.06;421904;23;772;-88
2023/01/28 00:30:15;;;;;;;2.83;2.10;;;;;;;2.84;70.21;100204.38;421351;23;1197;-89
2023/01/28 00:30:27;;;;;;;2.63;1.95;;;;;;;2.88;70.13;100198.41;422535;23;693;-89
2023/01/28 00:30:39;;;;;;;2.53;1.90;;;;;;;2.94;69.97;100195.91;423741;23;982;-89
2023/01/28 00:30:51;;;;;;;2.70;1.98;;;;;;;2.98;70.08;100202.78;423906;23;856;-88
2023/01/28 00:31:13;;;;;;;3.00;2.10;;;;;;;3.04;69.93;100200.25;424151;23;850;-88
2023/01/28 00:31:26;;;;;;;3.00;1.90;;;;;;;3.10;69.76;100186.56;421768;23;895;-88
2023/01/28 00:31:40;;;;;;;2.78;1.88;;;;;;;3.10;69.44;100195.16;421475;23;1155;-89
2023/01/28 00:31:52;;;;;;;2.22;1.88;;;;;;;3.14;69.45;100199.47;421201;23;1107;-88
2023/01/28 00:32:04;;;;;;;2.72;2.00;;;;;;;3.16;69.07;100192.63;424728;23;677;-88
2023/01/28 00:32:16;;;;;;;2.95;2.13;;;;;;;3.15;69.91;100190.03;423346;23;887;-88
2023/01/28 00:32:28;;;;;;;3.28;2.20;;;;;;;3.13;70.08;100187.47;420996;23;1213;-88
2023/01/28 00:32:40;;;;;;;2.60;1.88;;;;;;;3.10;70.44;100202.88;422115;23;832;-87
2023/01/28 00:32:55;;;;;;;2.60;1.90;;;;;;;2.99;70.94;100195.06;420698;23;782;-89
2023/01/28 00:33:07;;;;;;;2.75;2.05;;;;;;;2.95;71.34;100193.34;421786;23;953;-88
2023/01/28 00:33:19;;;;;;;3.17;2.15;;;;;;;2.91;71.12;100191.59;419679;23;962;-88
2023/01/28 00:33:31;;;;;;;3.20;2.13;;;;;;;2.92;71.53;100198.47;419419;23;1101;-87
2023/01/28 00:33:45;;;;;;;2.95;2.00;;;;;;;2.91;71.41;100201.88;420555;23;720;-88
2023/01/28 00:33:57;;;;;;;2.75;1.90;;;;;;;2.87;71.28;100194.13;421738;23;970;-88
2023/01/28 00:34:09;;;;;;;2.90;2.00;;;;;;;2.91;71.26;100201.00;422485;23;689;-87
2023/01/28 00:34:21;;;;;;;3.03;2.17;;;;;;;2.86;71.55;100197.53;421224;23;1184;-88
2023/01/28 00:34:33;;;;;;;2.88;2.00;;;;;;;2.84;71.46;100197.56;421330;23;1075;-89
2023/01/28 00:34:45;;;;;;;3.17;2.17;;;;;;;2.79;71.78;100201.78;420953;23;1158;-89
2023/01/28 00:34:57;;;;;;;3.20;2.10;;;;;;;2.80;72.11;100194.09;423530;23;1150;-88
2023/01/28 00:35:09;;;;;;;3.08;2.13;;;;;;;2.83;71.82;100194.97;419801;23;947;-88
2023/01/28 00:35:21;;;;;;;3.03;2.20;;;;;;;2.74;72.29;100194.03;419760;23;1065;-88
2023/01/28 00:35:33;;;;;;;2.78;2.10;;;;;;;2.72;72.27;100203.44;420096;23;833;-88
2023/01/28 00:35:45;;;;;;;2.42;1.95;;;;;;;2.72;72.44;100190.59;422572;23;670;-88
2023/01/28 00:36:01;;;;;;;2.70;1.98;;;;;;;2.66;72.29;100200.81;421549;23;1087;-89
2023/01/28 00:36:14;;;;;;;3.03;2.03;;;;;;;2.54;72.20;100204.16;421710;23;1040;-89
2023/01/28 00:36:26;;;;;;;2.85;2.05;;;;;;;2.48;72.35;100203.25;421710;23;961;-88
2023/01/28 00:36:38;;;;;;;2.50;1.90;;;;;;;2.51;72.55;100205.81;419932;23;769;-88
2023/01/28 00:36:56;;;;;;;2.22;1.90;;;;;;;2.60;72.28;100200.78;419715;23;974;-89
2023/01/28 00:37:08;;;;;;;2.70;2.10;;;;;;;2.52;72.51;100197.28;419712;23;1348;-89
2023/01/28 00:37:20;;;;;;;2.78;2.15;;;;;;;2.49;72.51;100197.25;422479;23;685;-88
2023/01/28 00:37:32;;;;;;;3.05;2.20;;;;;;;2.54;72.38;100206.72;423540;23;848;-88
2023/01/28 00:37:46;;;;;;;3.15;2.20;;;;;;;2.60;71.96;100205.91;422506;23;789;-88
2023/01/28 00:37:59;;;;;;;3.03;2.20;;;;;;;2.60;71.80;100200.78;422642;23;685;-88
2023/01/28 00:38:11;;;;;;;3.15;2.25;;;;;;;2.59;72.12;100204.19;423755;23;1061;-88
2023/01/28 00:38:27;;;;;;;3.03;2.10;;;;;;;2.61;71.90;100207.63;425389;23;1025;-88
2023/01/28 00:38:41;;;;;;;3.20;2.15;;;;;;;2.54;71.91;100205.84;424649;23;745;-89
2023/01/28 00:38:58;;;;;;;3.08;2.20;;;;;;;2.47;71.83;100209.19;424050;23;893;-89
2023/01/28 00:39:13;;;;;;;2.97;2.03;;;;;;;2.56;71.77;100206.72;425764;23;898;-89
2023/01/28 00:39:28;;;;;;;2.78;1.90;;;;;;;2.60;70.79;100205.91;421689;23;1018;-89
2023/01/28 00:39:40;;;;;;;3.35;2.05;;;;;;;2.65;71.42;100204.22;421817;23;1052;-88
2023/01/28 00:39:52;;;;;;;3.17;2.00;;;;;;;2.65;70.80;100199.09;421805;23;863;-89
2023/01/28 00:40:08;;;;;;;3.25;1.90;;;;;;;2.69;70.78;100198.28;422019;23;783;-89
2023/01/28 00:40:20;;;;;;;3.63;2.00;;;;;;;2.70;71.04;100201.72;421723;23;1125;-88
2023/01/28 00:40:32;;;;;;;3.35;2.10;;;;;;;2.63;71.51;100198.22;423773;23;952;-89
2023/01/28 00:40:45;;;;;;;3.65;2.42;;;;;;;2.63;72.09;100200.78;423827;23;859;-88
2023/01/28 00:41:10;;;;;;;4.03;2.50;;;;;;;2.58;71.92;100210.16;423558;23;1059;-89
2023/01/28 00:41:25;;;;;;;3.28;2.22;;;;;;;2.55;72.08;100197.28;425778;23;901;-89
2023/01/28 00:41:37;;;;;;;3.00;2.17;;;;;;;2.55;72.20;100198.16;426031;23;1123;-88
2023/01/28 00:41:51;;;;;;;3.20;2.25;;;;;;;2.49;71.93;100208.38;425926;23;1128;-88
2023/01/28 00:42:03;;;;;;;3.95;2.50;;;;;;;2.43;72.09;100202.31;426741;23;977;-90
2023/01/28 00:42:15;;;;;;;3.88;2.45;;;;;;;2.39;72.42;100207.44;423020;23;809;-89
2023/01/28 00:42:27;;;;;;;3.45;2.45;;;;;;;2.46;72.43;100203.22;422724;23;854;-89
2023/01/28 00:42:39;;;;;;;3.78;2.50;;;;;;;2.51;72.58;100203.25;422148;23;855;-90
2023/01/28 00:42:51;;;;;;;3.88;2.33;;;;;;;2.52;72.64;100202.41;424624;23;866;-89
2023/01/28 00:43:03;;;;;;;4.03;2.35;;;;;;;2.51;72.33;100206.66;425956;23;1035;-90
2023/01/28 00:43:18;;;;;;;3.30;2.10;;;;;;;2.48;72.05;100201.53;421656;23;894;-89
2023/01/28 00:43:30;;;;;;;3.33;2.05;;;;;;;2.44;72.13;100198.94;423611;23;1125;-89
2023/01/28 00:43:46;;;;;;;3.67;2.15;;;;;;;2.42;71.99;100200.63;424545;23;1076;-89
2023/01/28 00:43:58;;;;;;;4.25;2.35;;;;;;;2.41;71.70;100204.88;425838;23;1974;-89
2023/01/28 00:44:10;;;;;;;4.25;2.40;;;;;;;2.44;72.31;100202.34;426028;23;950;-89
2023/01/28 00:44:22;;;;;;;4.53;2.50;;;;;;;2.45;72.31;100209.19;425860;23;1123;-89
2023/01/28 00:44:35;;;;;;;3.85;2.47;;;;;;;2.42;71.90;100205.75;424184;23;1064;-89
2023/01/28 00:44:47;;;;;;;3.55;2.28;;;;;;;2.37;71.88;100206.56;424126;23;1064;-89
2023/01/28 00:44:59;;;;;;;3.33;2.17;;;;;;;2.38;72.30;100203.13;419977;23;1100;-90
2023/01/28 00:45:11;;;;;;;3.47;2.20;;;;;;;2.35;72.31;100205.66;420367;23;855;-90
2023/01/28 00:45:23;;;;;;;3.20;2.20;;;;;;;2.37;71.68;100209.13;421732;23;1051;-89
2023/01/28 00:45:35;;;;;;;3.50;2.28;;;;;;;2.36;72.34;100202.25;424871;23;882;-89
2023/01/28 00:45:47;;;;;;;4.10;2.40;;;;;;;2.35;71.57;100200.53;425992;23;953;-89
2023/01/28 00:46:01;;;;;;;3.90;2.40;;;;;;;2.34;72.03;100203.09;426132;23;936;-90
2023/01/28 00:46:14;;;;;;;3.65;2.40;;;;;;;2.36;72.18;100207.41;426373;23;923;-87
2023/01/28 00:46:26;;;;;;;3.38;2.40;;;;;;;2.39;72.33;100207.44;426024;23;863;-88
2023/01/28 00:46:40;;;;;;;3.47;2.40;;;;;;;2.35;71.69;100203.09;428162;23;890;-90
2023/01/28 00:46:52;;;;;;;3.55;2.40;;;;;;;2.23;71.89;100204.69;428134;23;938;-89
2023/01/28 00:47:04;;;;;;;3.33;2.30;;;;;;;2.25;71.64;100208.97;425661;23;1331;-88
2023/01/28 00:47:20;;;;;;;3.05;2.15;;;;;;;2.29;71.94;100205.59;425895;23;1080;-89
2023/01/28 00:47:32;;;;;;;3.38;2.17;;;;;;;2.25;71.98;100208.97;426323;23;744;-87
2023/01/28 00:47:44;;;;;;;4.07;2.40;;;;;;;2.25;71.65;100203.84;426014;23;864;-88
2023/01/28 00:47:56;;;;;;;3.90;2.60;;;;;;;2.28;71.89;100206.47;425990;23;942;-88
2023/01/28 00:48:08;;;;;;;3.55;2.58;;;;;;;2.29;71.94;100210.72;425270;23;1061;-88
2023/01/28 00:48:20;;;;;;;3.53;2.42;;;;;;;2.26;71.93;100210.72;421802;23;851;-88
2023/01/28 00:48:33;;;;;;;3.38;2.28;;;;;;;2.23;71.72;100205.53;422054;23;969;-88
2023/01/28 00:48:46;;;;;;;3.35;2.25;;;;;;;2.17;72.23;100201.25;421896;23;958;-88
2023/01/28 00:48:58;;;;;;;3.33;2.20;;;;;;;2.20;71.63;100200.41;419919;23;1066;-88
2023/01/28 00:49:10;;;;;;;3.30;2.13;;;;;;;2.22;71.79;100203.00;419770;23;1067;-87
2023/01/28 00:49:22;;;;;;;3.10;2.10;;;;;;;2.22;72.13;100203.00;422588;23;677;-87
2023/01/28 00:49:34;;;;;;;3.20;2.20;;;;;;;2.25;72.09;100211.56;422016;23;975;-87
2023/01/28 00:49:46;;;;;;;3.40;2.30;;;;;;;2.20;71.92;100201.25;424205;23;838;-87
2023/01/28 00:49:58;;;;;;;2.90;2.20;;;;;;;2.19;71.75;100203.78;420765;23;678;-88
2023/01/28 00:50:10;;;;;;;3.17;2.40;;;;;;;2.20;71.59;100206.38;420584;23;694;-88
2023/01/28 00:50:22;;;;;;;3.40;2.40;;;;;;;2.19;71.87;100203.78;419944;23;773;-89
2023/01/28 00:50:34;;;;;;;3.90;2.30;;;;;;;2.20;71.51;100200.41;420082;23;1160;-87
2023/01/28 00:50:46;;;;;;;3.67;2.10;;;;;;;2.25;71.90;100208.13;423960;23;976;-87
2023/01/28 00:50:58;;;;;;;3.92;2.20;;;;;;;2.25;71.70;100206.41;424951;23;684;-88
2023/01/28 00:51:12;;;;;;;4.18;2.40;;;;;;;2.25;71.82;100208.97;423689;23;1071;-88
2023/01/28 00:51:24;;;;;;;4.10;2.42;;;;;;;2.18;72.06;100202.09;426292;23;930;-89
2023/01/28 00:51:36;;;;;;;3.38;2.28;;;;;;;2.17;71.94;100206.38;424154;23;681;-87
2023/01/28 00:51:48;;;;;;;2.95;2.20;;;;;;;2.18;71.65;100204.66;420274;23;939;-88
2023/01/28 00:52:02;;;;;;;2.78;2.15;;;;;;;2.19;71.67;100204.69;419970;23;825;-87
2023/01/28 00:52:28;;;;;;;3.40;2.20;;;;;;;2.18;72.08;100202.94;422524;23;1550;-76
2023/01/28 00:52:39;;;;;;;3.40;2.20;;;;;;;2.21;71.85;100202.09;422486;23;1281;-72
2023/01/28 00:52:51;;;;;;;3.50;2.28;;;;;;;2.20;71.48;100210.66;423366;23;1160;-72
2023/01/28 00:53:03;;;;;;;3.63;2.40;;;;;;;2.14;71.73;100202.91;423303;23;1177;-72
2023/01/28 00:53:16;;;;;;;4.05;2.40;;;;;;;2.04;72.03;100203.66;423997;23;934;-71
2023/01/28 00:53:28;;;;;;;3.90;2.33;;;;;;;2.07;72.33;100206.22;424587;23;1106;-71
2023/01/28 00:53:40;;;;;;;3.10;2.20;;;;;;;2.09;72.24;100202.84;425281;23;1055;-71
2023/01/28 00:53:53;;;;;;;3.20;2.28;;;;;;;2.14;72.14;100202.91;425600;23;1314;-71
2023/01/28 00:54:05;;;;;;;2.80;2.08;;;;;;;2.05;71.87;100205.34;423627;23;1047;-70
2023/01/28 00:54:17;;;;;;;3.67;2.10;;;;;;;1.99;72.36;100203.56;423270;23;1122;-69
2023/01/28 00:54:29;;;;;;;3.88;2.17;;;;;;;1.98;72.15;100200.16;423637;23;1017;-69
2023/01/28 00:54:41;;;;;;;3.95;2.20;;;;;;;1.92;72.49;100202.66;423494;23;1090;-69
2023/01/28 00:54:53;;;;;;;2.97;2.10;;;;;;;1.95;72.66;100199.25;423005;23;1122;-70
2023/01/28 00:55:06;;;;;;;2.85;2.15;;;;;;;1.98;72.58;100200.16;423422;23;1148;-70
2023/01/28 00:55:18;;;;;;;3.20;2.40;;;;;;;2.04;72.57;100204.50;423375;23;1175;-70
2023/01/28 00:55:30;;;;;;;3.13;2.40;;;;;;;2.08;72.41;100205.41;423833;23;1127;-70
2023/01/28 00:55:45;;;;;;;2.92;2.30;;;;;;;2.11;72.73;100202.84;423039;23;1235;-69
2023/01/28 00:55:57;;;;;;;2.75;2.20;;;;;;;2.13;72.43;100198.59;423900;23;1145;-70
2023/01/28 00:56:12;;;;;;;3.00;2.30;;;;;;;2.13;72.67;100206.28;424005;23;1173;-71
2023/01/28 00:56:24;;;;;;;3.10;2.25;;;;;;;2.04;72.38;100206.22;423236;23;1111;-70
2023/01/28 00:56:36;;;;;;;3.33;2.28;;;;;;;2.00;72.41;100198.47;420935;23;1127;-70
2023/01/28 00:56:48;;;;;;;3.38;2.28;;;;;;;2.02;72.82;100202.78;421429;23;1117;-70
2023/01/28 00:57:00;;;;;;;3.28;2.10;;;;;;;2.08;73.04;100200.28;420903;23;1252;-70
2023/01/28 00:57:12;;;;;;;3.20;2.10;;;;;;;2.05;72.82;100200.22;421661;23;1018;-70
2023/01/28 00:57:24;;;;;;;3.40;2.20;;;;;;;2.00;72.76;100201.03;421343;23;1198;-73
2023/01/28 00:57:36;;;;;;;4.10;2.40;;;;;;;2.04;72.71;100201.09;421440;23;1099;-70
2023/01/28 00:57:48;;;;;;;3.90;2.30;;;;;;;2.09;72.19;100202.84;421482;23;1309;-69
2023/01/28 00:58:00;;;;;;;3.03;2.20;;;;;;;2.14;72.64;100200.34;421564;23;1084;-71
2023/01/28 00:58:12;;;;;;;3.10;2.13;;;;;;;2.17;72.65;100206.38;421133;23;1288;-71
2023/01/28 00:58:24;;;;;;;3.65;2.45;;;;;;;2.19;72.10;100203.78;421591;23;1069;-71
2023/01/28 00:58:36;;;;;;;3.60;2.40;;;;;;;2.15;72.35;100200.38;423610;23;1142;-71
2023/01/28 00:58:48;;;;;;;3.63;2.40;;;;;;;2.07;72.10;100199.38;425382;23;1069;-71
2023/01/28 00:59:00;;;;;;;3.15;2.25;;;;;;;2.07;71.88;100208.78;425363;23;1227;-71
2023/01/28 00:59:12;;;;;;;3.40;2.38;;;;;;;2.09;72.62;100204.53;425285;23;1291;-71
2023/01/28 00:59:26;;;;;;;3.13;2.28;;;;;;;2.08;72.37;100200.28;425536;23;1193;-70
2023/01/28 00:59:38;;;;;;;3.47;2.50;;;;;;;2.03;72.91;100204.47;425618;23;1009;-70
2023/01/28 00:59:50;;;;;;;3.28;2.40;;;;;;;2.06;73.49;100201.97;425172;23;1106;-70
2023/01/28 01:00:03;;;;;;;4.03;2.20;;;;;;;2.12;73.32;100196.91;425757;23;897;-72
2023/01/28 01:00:16;;;;;;;4.05;2.13;;;;;;;2.16;73.85;100204.63;424897;23;1049;-72
2023/01/28 01:00:28;;;;;;;4.03;2.22;;;;;;;2.23;73.63;100204.69;425673;23;1143;-72
2023/01/28 01:00:40;;;;;;;3.33;2.30;;;;;;;2.26;73.16;100205.59;425263;23;902;-71
2023/01/28 01:00:52;;;;;;;3.65;2.35;;;;;;;2.32;73.11;100200.50;425104;23;1253;-72
2023/01/28 01:01:14;;;;;;;3.30;2.20;;;;;;;2.39;73.17;100197.19;425464;23;1022;-71
2023/01/28 01:01:27;;;;;;;3.45;2.28;;;;;;;2.44;72.87;100209.19;423610;23;1013;-72
2023/01/28 01:01:39;;;;;;;3.28;2.22;;;;;;;2.47;73.01;100207.50;425216;23;1171;-72
2023/01/28 01:01:51;;;;;;;3.05;2.00;;;;;;;2.51;72.67;100200.69;425400;23;1035;-76
2023/01/28 01:02:11;;;;;;;3.20;2.15;;;;;;;2.55;72.49;100207.56;425635;23;1096;-74